createdAt,value
2022-11-27T00:01:28.294Z,100.00
2022-11-27T00:03:31.148Z,100.00
2022-11-27T00:05:33.950Z,100.00
2022-11-27T00:07:36.832Z,100.00
2022-11-27T00:09:41.600Z,100.00
2022-11-27T00:11:45.419Z,100.00
2022-11-27T00:13:49.143Z,100.00
2022-11-27T00:15:52.138Z,100.00
2022-11-27T00:17:54.876Z,100.00
2022-11-27T00:19:57.711Z,100.00
2022-11-27T00:22:00.482Z,100.00
2022-11-27T00:24:05.794Z,100.00
2022-11-27T00:26:10.529Z,100.00
2022-11-27T00:28:13.308Z,100.00
2022-11-27T00:30:16.333Z,100.00
2022-11-27T00:32:19.000Z,100.00
2022-11-27T00:34:21.687Z,100.00
2022-11-27T00:36:24.624Z,100.00
2022-11-27T00:38:27.272Z,100.00
2022-11-27T00:40:30.183Z,100.00
2022-11-27T00:42:34.255Z,100.00
2022-11-27T00:44:37.310Z,100.00
2022-11-27T00:46:41.013Z,100.00
2022-11-27T00:48:44.246Z,100.00
2022-11-27T00:50:46.966Z,100.00
2022-11-27T00:52:49.760Z,100.00
2022-11-27T00:54:52.439Z,100.00
2022-11-27T00:56:55.073Z,100.00
2022-11-27T00:58:59.672Z,100.00
2022-11-27T01:01:04.587Z,100.00
2022-11-27T01:03:07.333Z,100.00
2022-11-27T01:05:10.462Z,100.00
2022-11-27T01:07:13.398Z,100.00
2022-11-27T01:09:16.384Z,100.00
2022-11-27T01:11:22.131Z,100.00
2022-11-27T01:13:25.974Z,100.00
2022-11-27T01:15:30.140Z,100.00
2022-11-27T01:17:32.996Z,100.00
2022-11-27T01:19:35.783Z,100.00
2022-11-27T01:21:38.511Z,100.00
2022-11-27T01:23:41.808Z,100.00
2022-11-27T01:25:44.563Z,100.00
2022-11-27T01:27:47.251Z,100.00
2022-11-27T01:29:50.095Z,100.00
2022-11-27T01:31:54.176Z,100.00
2022-11-27T01:33:59.075Z,100.00
2022-11-27T01:36:03.771Z,100.00
2022-11-27T01:38:06.424Z,100.00
2022-11-27T01:40:10.393Z,100.00
2022-11-27T01:42:13.374Z,100.00
2022-11-27T01:44:52.565Z,100.00
2022-11-27T01:46:59.801Z,100.00
2022-11-27T01:49:26.374Z,100.00
2022-11-27T01:51:29.283Z,100.00
2022-11-27T01:53:34.268Z,100.00
2022-11-27T01:55:41.982Z,100.00
2022-11-27T01:57:48.648Z,100.00
2022-11-27T01:59:53.158Z,100.00
2022-11-27T02:01:57.329Z,100.00
2022-11-27T02:04:01.965Z,100.00
2022-11-27T02:06:05.089Z,100.00
2022-11-27T02:08:11.568Z,100.00
2022-11-27T02:10:15.354Z,100.00
2022-11-27T02:12:25.340Z,100.00
2022-11-27T02:14:38.457Z,100.00
2022-11-27T02:16:52.363Z,100.00
2022-11-27T02:19:01.085Z,100.00
2022-11-27T02:21:10.141Z,100.00
2022-11-27T02:23:37.487Z,100.00
2022-11-27T02:25:53.047Z,100.00
2022-11-27T02:28:11.991Z,100.00
2022-11-27T02:30:16.632Z,100.00
2022-11-27T02:32:26.520Z,100.00
2022-11-27T02:34:46.856Z,100.00
2022-11-27T02:36:54.438Z,100.00
2022-11-27T02:39:03.043Z,100.00
2022-11-27T02:41:11.479Z,100.00
2022-11-27T02:43:19.588Z,100.00
2022-11-27T02:45:29.296Z,100.00
2022-11-27T02:47:33.819Z,100.00
2022-11-27T02:49:38.782Z,100.00
2022-11-27T02:51:45.933Z,100.00
2022-11-27T02:53:53.101Z,100.00
2022-11-27T02:55:58.976Z,100.00
2022-11-27T02:58:04.808Z,100.00
2022-11-27T03:00:10.230Z,100.00
2022-11-27T03:02:19.993Z,100.00
2022-11-27T03:04:28.044Z,100.00
2022-11-27T03:06:35.204Z,100.00
2022-11-27T03:08:43.459Z,100.00
2022-11-27T03:10:52.187Z,100.00
2022-11-27T03:12:54.929Z,100.00
2022-11-27T03:14:57.887Z,100.00
2022-11-27T03:17:07.002Z,100.00
2022-11-27T03:19:18.174Z,100.00
2022-11-27T03:21:29.931Z,100.00
2022-11-27T03:23:32.772Z,100.00
2022-11-27T03:25:35.587Z,100.00
2022-11-27T03:27:44.512Z,100.00
2022-11-27T03:29:51.830Z,100.00
2022-11-27T03:31:54.647Z,100.00
2022-11-27T03:33:58.714Z,100.00
2022-11-27T03:36:02.865Z,100.00
2022-11-27T03:38:05.960Z,100.00
2022-11-27T03:40:10.326Z,100.00
2022-11-27T03:42:19.961Z,100.00
2022-11-27T03:44:31.844Z,100.00
2022-11-27T03:46:43.677Z,100.00
2022-11-27T03:48:54.921Z,100.00
2022-11-27T03:51:08.670Z,100.00
2022-11-27T03:53:19.960Z,100.00
2022-11-27T03:55:29.697Z,100.00
2022-11-27T03:57:38.818Z,100.00
2022-11-27T03:59:45.572Z,100.00
2022-11-27T04:01:48.535Z,100.00
2022-11-27T04:03:51.345Z,100.00
2022-11-27T04:05:54.283Z,100.00
2022-11-27T04:07:58.438Z,100.00
2022-11-27T04:10:01.231Z,100.00
2022-11-27T04:12:03.997Z,100.00
2022-11-27T04:14:06.732Z,100.00
2022-11-27T04:16:09.822Z,100.00
2022-11-27T04:18:12.804Z,100.00
2022-11-27T04:20:16.540Z,100.00
2022-11-27T04:22:19.738Z,100.00
2022-11-27T04:24:23.864Z,100.00
2022-11-27T04:26:26.591Z,100.00
2022-11-27T04:28:29.284Z,100.00
2022-11-27T04:30:32.479Z,100.00
2022-11-27T04:32:35.238Z,100.00
2022-11-27T04:34:38.080Z,100.00
2022-11-27T04:36:42.150Z,100.00
2022-11-27T04:38:44.857Z,100.00
2022-11-27T04:40:49.226Z,100.00
2022-11-27T04:42:52.030Z,100.00
2022-11-27T04:44:54.752Z,100.00
2022-11-27T04:46:57.509Z,100.00
2022-11-27T04:49:00.439Z,100.00
2022-11-27T04:51:03.120Z,100.00
2022-11-27T04:53:05.823Z,100.00
2022-11-27T04:55:10.820Z,100.00
2022-11-27T04:57:15.034Z,100.00
2022-11-27T04:59:17.801Z,100.00
2022-11-27T05:01:20.835Z,100.00
2022-11-27T05:03:23.734Z,100.00
2022-11-27T05:05:26.524Z,100.00
2022-11-27T05:07:29.401Z,100.00
2022-11-27T05:09:32.130Z,100.00
2022-11-27T05:11:35.292Z,100.00
2022-11-27T05:13:39.641Z,100.00
2022-11-27T05:15:42.390Z,100.00
2022-11-27T05:17:45.196Z,100.00
2022-11-27T05:19:47.942Z,100.00
2022-11-27T05:21:51.404Z,100.00
2022-11-27T05:23:54.220Z,100.00
2022-11-27T05:25:57.315Z,100.00
2022-11-27T05:28:00.061Z,100.00
2022-11-27T05:30:04.543Z,100.00
2022-11-27T05:32:07.262Z,100.00
2022-11-27T05:34:10.443Z,100.00
2022-11-27T05:36:13.383Z,100.00
2022-11-27T05:38:16.102Z,100.00
2022-11-27T05:40:18.875Z,100.00
2022-11-27T05:42:21.591Z,100.00
2022-11-27T05:44:24.299Z,100.00
2022-11-27T05:46:28.786Z,100.00
2022-11-27T05:48:31.628Z,100.00
2022-11-27T05:50:34.336Z,100.00
2022-11-27T05:52:37.104Z,100.00
2022-11-27T05:54:40.022Z,100.00
2022-11-27T05:56:42.957Z,100.00
2022-11-27T05:58:47.590Z,100.00
2022-11-27T06:00:50.392Z,100.00
2022-11-27T06:02:54.571Z,100.00
2022-11-27T06:04:57.478Z,100.00
2022-11-27T06:07:00.282Z,100.00
2022-11-27T06:09:05.700Z,100.00
2022-11-27T06:11:12.587Z,100.00
2022-11-27T06:13:15.724Z,100.00
2022-11-27T06:15:18.559Z,100.00
2022-11-27T06:17:21.334Z,100.00
2022-11-27T06:19:25.593Z,100.00
2022-11-27T06:21:28.289Z,100.00
2022-11-27T06:23:31.083Z,100.00
2022-11-27T06:25:33.775Z,100.00
2022-11-27T06:27:37.443Z,100.00
2022-11-27T06:29:40.210Z,100.00
2022-11-27T06:31:43.231Z,100.00
2022-11-27T06:33:46.387Z,100.00
2022-11-27T06:35:50.508Z,100.00
2022-11-27T06:37:53.148Z,100.00
2022-11-27T06:39:55.869Z,100.00
2022-11-27T06:41:58.597Z,100.00
2022-11-27T06:44:02.571Z,100.00
2022-11-27T06:46:07.485Z,100.00
2022-11-27T06:48:10.251Z,100.00
2022-11-27T06:50:13.162Z,100.00
2022-11-27T06:52:17.409Z,100.00
2022-11-27T06:54:20.119Z,100.00
2022-11-27T06:56:25.650Z,100.00
2022-11-27T06:58:31.208Z,100.00
2022-11-27T07:00:34.121Z,100.00
2022-11-27T07:02:36.917Z,100.00
2022-11-27T07:04:39.948Z,100.00
2022-11-27T07:06:43.384Z,100.00
2022-11-27T07:08:47.866Z,100.00
2022-11-27T07:10:50.609Z,100.00
2022-11-27T07:12:53.281Z,100.00
2022-11-27T07:14:55.990Z,100.00
2022-11-27T07:16:58.703Z,100.00
2022-11-27T07:19:03.593Z,100.00
2022-11-27T07:21:06.922Z,100.00
2022-11-27T07:23:09.607Z,100.00
2022-11-27T07:25:13.710Z,100.00
2022-11-27T07:27:16.423Z,100.00
2022-11-27T07:29:19.204Z,100.00
2022-11-27T07:31:24.935Z,100.00
2022-11-27T07:33:28.050Z,100.00
2022-11-27T07:35:30.799Z,100.00
2022-11-27T07:37:34.894Z,100.00
2022-11-27T07:40:00.779Z,100.00
2022-11-27T07:42:23.090Z,100.00
2022-11-27T07:44:24.491Z,100.00
2022-11-27T07:46:27.566Z,100.00
2022-11-27T07:48:30.351Z,100.00
2022-11-27T07:50:33.189Z,100.00
2022-11-27T07:52:41.008Z,100.00
2022-11-27T07:54:44.358Z,100.00
2022-11-27T07:56:47.149Z,100.00
2022-11-27T07:58:51.278Z,100.00
2022-11-27T08:00:54.038Z,100.00
2022-11-27T08:02:56.794Z,100.00
2022-11-27T08:04:59.635Z,100.00
2022-11-27T08:07:02.413Z,100.00
2022-11-27T08:09:05.319Z,100.00
2022-11-27T08:11:08.049Z,100.00
2022-11-27T08:13:11.247Z,100.00
2022-11-27T08:15:15.357Z,100.00
2022-11-27T08:17:18.395Z,100.00
2022-11-27T08:19:21.212Z,100.00
2022-11-27T08:21:24.800Z,100.00
2022-11-27T08:23:27.539Z,100.00
2022-11-27T08:25:30.302Z,100.00
2022-11-27T08:27:33.371Z,100.00
2022-11-27T08:29:36.408Z,100.00
2022-11-27T08:31:40.907Z,100.00
2022-11-27T08:33:43.611Z,100.00
2022-11-27T08:35:49.225Z,100.00
2022-11-27T08:37:52.067Z,100.00
2022-11-27T08:39:54.795Z,100.00
2022-11-27T08:41:57.581Z,100.00
2022-11-27T08:44:00.386Z,100.00
2022-11-27T08:46:05.186Z,100.00
2022-11-27T08:48:09.497Z,100.00
2022-11-27T08:50:12.328Z,98.24
2022-11-27T08:52:15.068Z,98.99
2022-11-27T08:54:17.892Z,100.00
2022-11-27T08:56:22.376Z,100.00
2022-11-27T08:58:25.036Z,100.00
2022-11-27T09:00:28.247Z,100.00
2022-11-27T09:02:31.070Z,100.00
2022-11-27T09:04:35.168Z,98.27
2022-11-27T09:06:37.964Z,100.00
2022-11-27T09:08:41.710Z,95.83
2022-11-27T09:10:44.520Z,94.96
2022-11-27T09:12:47.497Z,92.86
2022-11-27T09:14:50.325Z,98.28
2022-11-27T09:16:54.024Z,98.66
2022-11-27T09:18:58.127Z,99.61
2022-11-27T09:21:04.324Z,100.00
2022-11-27T09:23:11.442Z,100.00
2022-11-27T09:25:17.121Z,96.65
2022-11-27T09:27:19.829Z,97.54
2022-11-27T09:29:23.006Z,100.00
2022-11-27T09:31:26.156Z,100.00
2022-11-27T09:33:30.356Z,100.00
2022-11-27T09:35:33.244Z,100.00
2022-11-27T09:37:37.445Z,100.00
2022-11-27T09:39:40.103Z,100.00
2022-11-27T09:41:47.812Z,100.00
2022-11-27T09:43:54.342Z,100.00
2022-11-27T09:46:03.940Z,100.00
2022-11-27T09:48:12.554Z,100.00
2022-11-27T09:50:18.392Z,100.00
2022-11-27T09:52:25.644Z,100.00
2022-11-27T09:54:35.807Z,100.00
2022-11-27T09:56:38.793Z,100.00
2022-11-27T09:58:43.714Z,100.00
2022-11-27T10:00:47.219Z,100.00
2022-11-27T10:02:50.165Z,100.00
2022-11-27T10:05:19.488Z,100.00
2022-11-27T10:07:26.523Z,100.00
2022-11-27T10:09:41.936Z,100.00
2022-11-27T10:11:54.002Z,100.00
2022-11-27T10:14:06.868Z,100.00
2022-11-27T10:16:22.246Z,100.00
2022-11-27T10:18:33.399Z,100.00
2022-11-27T10:20:43.591Z,100.00
2022-11-27T10:22:55.912Z,100.00
2022-11-27T10:25:08.451Z,100.00
2022-11-27T10:27:19.630Z,100.00
2022-11-27T10:29:37.657Z,100.00
2022-11-27T10:31:46.613Z,100.00
2022-11-27T10:33:54.425Z,100.00
2022-11-27T10:35:57.489Z,100.00
2022-11-27T10:38:06.963Z,100.00
2022-11-27T10:40:24.370Z,100.00
2022-11-27T10:42:33.109Z,100.00
2022-11-27T10:44:39.805Z,100.00
2022-11-27T10:46:42.484Z,100.00
2022-11-27T10:48:45.332Z,100.00
2022-11-27T10:50:50.390Z,100.00
2022-11-27T10:52:56.744Z,100.00
2022-11-27T10:55:03.691Z,100.00
2022-11-27T10:57:25.234Z,100.00
2022-11-27T10:59:34.645Z,100.00
2022-11-27T11:01:45.722Z,100.00
2022-11-27T11:03:48.569Z,100.00
2022-11-27T11:06:21.459Z,98.63
2022-11-27T11:08:26.416Z,99.78
2022-11-27T11:10:36.051Z,96.58
2022-11-27T11:12:40.487Z,95.37
2022-11-27T11:14:52.033Z,93.42
2022-11-27T11:16:55.874Z,92.50
2022-11-27T11:19:00.985Z,90.99
2022-11-27T11:21:07.200Z,89.30
2022-11-27T11:23:22.073Z,89.61
2022-11-27T11:25:24.916Z,90.83
2022-11-27T11:27:31.050Z,90.95
2022-11-27T11:29:38.837Z,91.56
2022-11-27T11:31:42.303Z,90.99
2022-11-27T11:33:52.245Z,91.26
2022-11-27T11:35:58.388Z,90.29
2022-11-27T11:38:02.549Z,92.05
2022-11-27T11:40:12.047Z,93.10
2022-11-27T11:42:22.551Z,95.12
2022-11-27T11:44:34.225Z,96.17
2022-11-27T11:46:40.264Z,96.01
2022-11-27T11:48:54.187Z,95.89
2022-11-27T11:51:02.474Z,94.79
2022-11-27T11:53:14.053Z,94.74
2022-11-27T11:55:20.947Z,97.20
2022-11-27T11:57:51.296Z,98.04
2022-11-27T12:00:00.034Z,94.88
2022-11-27T12:02:35.211Z,89.54
2022-11-27T12:05:06.543Z,84.17
2022-11-27T12:07:21.597Z,84.27
2022-11-27T12:09:41.318Z,84.40
2022-11-27T12:11:52.225Z,84.11
2022-11-27T12:14:14.385Z,84.84
2022-11-27T12:16:25.064Z,84.20
2022-11-27T12:18:48.061Z,84.60
2022-11-27T12:21:08.188Z,84.81
2022-11-27T12:23:49.400Z,83.43
2022-11-27T12:26:06.103Z,82.87
2022-11-27T12:28:28.371Z,83.27
2022-11-27T12:30:42.725Z,82.65
2022-11-27T12:33:00.649Z,80.60
2022-11-27T12:35:24.382Z,77.82
2022-11-27T12:37:41.247Z,78.63
2022-11-27T12:39:58.283Z,78.07
2022-11-27T12:42:07.532Z,74.79
2022-11-27T12:44:20.407Z,75.65
2022-11-27T12:46:29.718Z,73.00
2022-11-27T12:48:36.164Z,73.43
2022-11-27T12:50:45.002Z,68.10
2022-11-27T12:52:56.666Z,69.58
2022-11-27T12:55:04.744Z,71.53
2022-11-27T12:57:15.074Z,72.97
2022-11-27T12:59:23.719Z,75.64
2022-11-27T13:01:31.770Z,76.37
2022-11-27T13:03:43.296Z,76.75
2022-11-27T13:05:52.914Z,76.79
2022-11-27T13:08:02.529Z,79.08
2022-11-27T13:10:14.378Z,78.02
2022-11-27T13:12:21.682Z,78.60
2022-11-27T13:14:29.130Z,78.96
2022-11-27T13:16:36.664Z,79.14
2022-11-27T13:18:42.530Z,78.85
2022-11-27T13:20:52.584Z,78.16
2022-11-27T13:22:55.778Z,77.94
2022-11-27T13:25:02.761Z,79.74
2022-11-27T13:27:10.223Z,81.16
2022-11-27T13:29:22.954Z,81.42
2022-11-27T13:31:29.267Z,81.99
2022-11-27T13:33:38.180Z,83.09
2022-11-27T13:35:42.788Z,84.03
2022-11-27T13:37:50.991Z,85.11
2022-11-27T13:40:01.092Z,86.16
2022-11-27T13:42:07.054Z,86.93
2022-11-27T13:44:24.136Z,87.33
2022-11-27T13:46:28.895Z,87.67
2022-11-27T13:48:34.664Z,86.32
2022-11-27T13:50:44.832Z,87.89
2022-11-27T13:52:59.928Z,89.02
2022-11-27T13:55:05.432Z,89.66
2022-11-27T13:57:13.299Z,89.21
2022-11-27T13:59:17.709Z,90.27
2022-11-27T14:01:22.561Z,91.18
2022-11-27T14:03:27.297Z,91.39
2022-11-27T14:05:41.782Z,90.95
2022-11-27T14:07:47.818Z,91.40
2022-11-27T14:09:55.593Z,90.99
2022-11-27T14:11:58.662Z,91.97
2022-11-27T14:14:03.686Z,93.61
2022-11-27T14:16:20.485Z,93.60
2022-11-27T14:18:24.389Z,93.46
2022-11-27T14:20:31.347Z,93.46
2022-11-27T14:23:07.141Z,94.48
2022-11-27T14:25:19.619Z,91.42
2022-11-27T14:27:24.211Z,92.34
2022-11-27T14:29:30.979Z,91.72
2022-11-27T14:31:35.734Z,92.78
2022-11-27T14:34:07.439Z,92.38
2022-11-27T14:36:08.818Z,93.40
2022-11-27T14:38:12.802Z,93.11
2022-11-27T14:40:24.052Z,92.89
2022-11-27T14:42:30.220Z,92.79
2022-11-27T14:44:35.784Z,92.81
2022-11-27T14:46:38.906Z,92.72
2022-11-27T14:48:45.125Z,92.57
2022-11-27T14:50:49.259Z,92.57
2022-11-27T14:52:55.483Z,92.11
2022-11-27T14:54:59.405Z,91.60
2022-11-27T14:57:05.273Z,90.81
2022-11-27T14:59:08.396Z,92.08
2022-11-27T15:01:23.843Z,92.84
2022-11-27T15:03:27.898Z,92.96
2022-11-27T15:05:31.281Z,92.09
2022-11-27T15:07:45.361Z,91.56
2022-11-27T15:09:53.579Z,91.68
2022-11-27T15:11:59.481Z,90.42
2022-11-27T15:14:04.480Z,90.85
2022-11-27T15:16:15.476Z,91.46
2022-11-27T15:18:22.755Z,92.60
2022-11-27T15:20:29.956Z,93.41
2022-11-27T15:22:33.571Z,93.71
2022-11-27T15:24:39.464Z,94.75
2022-11-27T15:26:45.009Z,95.15
2022-11-27T15:28:53.888Z,95.40
2022-11-27T15:30:58.280Z,96.34
2022-11-27T15:33:01.270Z,96.33
2022-11-27T15:35:14.265Z,96.30
2022-11-27T15:37:24.108Z,97.52
2022-11-27T15:39:33.238Z,97.82
2022-11-27T15:41:40.835Z,97.48
2022-11-27T15:43:46.401Z,97.01
2022-11-27T15:45:49.259Z,95.83
2022-11-27T15:47:58.382Z,96.63
2022-11-27T15:50:01.899Z,97.11
2022-11-27T15:52:05.115Z,97.44
2022-11-27T15:54:07.963Z,99.15
2022-11-27T15:56:10.758Z,100.00
2022-11-27T15:58:13.528Z,100.00
2022-11-27T16:00:17.560Z,100.00
2022-11-27T16:02:20.507Z,100.00
2022-11-27T16:04:24.820Z,100.00
2022-11-27T16:06:27.522Z,100.00
2022-11-27T16:08:30.271Z,100.00
2022-11-27T16:10:33.061Z,100.00
2022-11-27T16:12:35.822Z,100.00
2022-11-27T16:14:38.941Z,100.00
2022-11-27T16:16:42.372Z,100.00
2022-11-27T16:18:45.339Z,100.00
2022-11-27T16:20:49.440Z,100.00
2022-11-27T16:22:52.444Z,100.00
2022-11-27T16:24:55.121Z,100.00
2022-11-27T16:26:57.863Z,100.00
2022-11-27T16:29:00.680Z,100.00
2022-11-27T16:31:07.709Z,100.00
2022-11-27T16:33:10.501Z,100.00
2022-11-27T16:35:13.768Z,100.00
2022-11-27T16:37:18.674Z,100.00
2022-11-27T16:39:21.444Z,100.00
2022-11-27T16:41:25.220Z,100.00
2022-11-27T16:43:28.836Z,100.00
2022-11-27T16:45:31.646Z,100.00
2022-11-27T16:47:34.454Z,100.00
2022-11-27T16:49:37.130Z,100.00
2022-11-27T16:51:40.658Z,100.00
2022-11-27T16:53:46.182Z,100.00
2022-11-27T16:55:49.295Z,98.15
2022-11-27T16:57:52.052Z,96.54
2022-11-27T16:59:54.755Z,95.93
2022-11-27T17:01:57.797Z,95.40
2022-11-27T17:04:01.171Z,95.38
2022-11-27T17:06:09.148Z,95.35
2022-11-27T17:08:11.876Z,93.91
2022-11-27T17:10:16.045Z,93.97
2022-11-27T17:12:18.744Z,94.57
2022-11-27T17:14:21.640Z,93.97
2022-11-27T17:16:24.844Z,95.19
2022-11-27T17:18:27.707Z,94.34
2022-11-27T17:20:30.421Z,94.75
2022-11-27T17:22:34.270Z,93.85
2022-11-27T17:24:37.042Z,93.82
2022-11-27T17:26:43.081Z,94.11
2022-11-27T17:28:46.688Z,94.15
2022-11-27T17:30:49.421Z,94.07
2022-11-27T17:32:52.572Z,93.02
2022-11-27T17:34:55.551Z,94.40
2022-11-27T17:36:58.658Z,95.40
2022-11-27T17:39:02.743Z,96.13
2022-11-27T17:41:07.677Z,96.46
2022-11-27T17:43:11.886Z,95.65
2022-11-27T17:45:14.990Z,95.41
2022-11-27T17:47:17.941Z,93.56
2022-11-27T17:49:21.986Z,93.08
2022-11-27T17:51:24.871Z,93.08
2022-11-27T17:53:27.908Z,93.87
2022-11-27T17:55:30.651Z,93.77
2022-11-27T17:57:34.508Z,93.64
2022-11-27T17:59:39.950Z,94.28
2022-11-27T18:01:42.945Z,94.61
2022-11-27T18:03:47.061Z,93.76
2022-11-27T18:05:49.848Z,93.56
2022-11-27T18:07:52.635Z,93.83
2022-11-27T18:09:57.068Z,92.36
2022-11-27T18:11:59.793Z,92.28
2022-11-27T18:14:03.100Z,92.00
2022-11-27T18:16:10.614Z,92.67
2022-11-27T18:18:13.468Z,92.44
2022-11-27T18:20:16.239Z,91.87
2022-11-27T18:22:19.364Z,91.55
2022-11-27T18:24:23.942Z,91.26
2022-11-27T18:26:45.470Z,90.87
2022-11-27T18:28:55.559Z,90.95
2022-11-27T18:30:58.262Z,91.85
2022-11-27T18:33:03.396Z,92.37
2022-11-27T18:35:07.429Z,91.79
2022-11-27T18:37:10.927Z,91.16
2022-11-27T18:39:13.884Z,90.58
2022-11-27T18:41:18.518Z,91.07
2022-11-27T18:43:21.323Z,90.61
2022-11-27T18:45:33.014Z,90.84
2022-11-27T18:47:37.262Z,90.77
2022-11-27T18:49:41.714Z,91.33
2022-11-27T18:51:44.943Z,90.36
2022-11-27T18:53:48.447Z,89.31
2022-11-27T18:55:52.899Z,90.06
2022-11-27T18:57:55.873Z,90.60
2022-11-27T18:59:58.722Z,91.70
2022-11-27T19:02:01.611Z,91.92
2022-11-27T19:04:05.085Z,91.71
2022-11-27T19:06:11.231Z,91.51
2022-11-27T19:08:13.905Z,90.69
2022-11-27T19:10:17.258Z,90.63
2022-11-27T19:12:20.108Z,90.39
2022-11-27T19:14:22.818Z,90.71
2022-11-27T19:16:29.028Z,90.00
2022-11-27T19:18:31.752Z,90.77
2022-11-27T19:20:36.787Z,91.10
2022-11-27T19:22:40.905Z,92.68
2022-11-27T19:24:43.727Z,94.47
2022-11-27T19:26:46.495Z,95.27
2022-11-27T19:28:50.209Z,95.59
2022-11-27T19:30:53.029Z,96.34
2022-11-27T19:32:55.709Z,97.31
2022-11-27T19:35:00.899Z,98.30
2022-11-27T19:37:07.123Z,98.51
2022-11-27T19:39:15.409Z,99.08
2022-11-27T19:41:19.579Z,99.66
2022-11-27T19:43:22.370Z,99.89
2022-11-27T19:45:26.167Z,99.85
2022-11-27T19:47:28.867Z,100.00
2022-11-27T19:49:31.658Z,100.00
2022-11-27T19:51:37.371Z,100.00
2022-11-27T19:53:41.039Z,100.00
2022-11-27T19:55:45.351Z,100.00
2022-11-27T19:57:48.031Z,100.00
2022-11-27T19:59:50.803Z,100.00
2022-11-27T20:01:53.594Z,100.00
2022-11-27T20:03:57.045Z,100.00
2022-11-27T20:06:03.685Z,100.00
2022-11-27T20:08:06.609Z,100.00
2022-11-27T20:10:09.721Z,100.00
2022-11-27T20:12:14.670Z,100.00
2022-11-27T20:14:17.608Z,100.00
2022-11-27T20:16:22.090Z,100.00
2022-11-27T20:18:25.965Z,100.00
2022-11-27T20:20:33.864Z,100.00
2022-11-27T20:22:37.048Z,100.00
2022-11-27T20:24:58.167Z,100.00
2022-11-27T20:27:02.542Z,100.00
2022-11-27T20:29:07.507Z,100.00
2022-11-27T20:31:15.684Z,100.00
2022-11-27T20:33:19.683Z,100.00
2022-11-27T20:35:22.591Z,100.00
2022-11-27T20:37:25.411Z,100.00
2022-11-27T20:39:28.463Z,100.00
2022-11-27T20:41:31.782Z,100.00
2022-11-27T20:43:34.456Z,100.00
2022-11-27T20:45:39.530Z,100.00
2022-11-27T20:47:42.228Z,100.00
2022-11-27T20:49:44.994Z,100.00
2022-11-27T20:51:49.073Z,100.00
2022-11-27T20:53:52.129Z,100.00
2022-11-27T20:55:54.841Z,100.00
2022-11-27T20:57:57.610Z,100.00
2022-11-27T21:00:00.294Z,100.00
2022-11-27T21:02:05.401Z,100.00
2022-11-27T21:04:17.077Z,100.00
2022-11-27T21:06:21.552Z,100.00
2022-11-27T21:08:24.370Z,100.00
2022-11-27T21:10:27.224Z,100.00
2022-11-27T21:12:29.900Z,100.00
2022-11-27T21:14:32.581Z,100.00
2022-11-27T21:16:38.032Z,100.00
2022-11-27T21:18:42.270Z,100.00
2022-11-27T21:20:45.057Z,100.00
2022-11-27T21:22:47.804Z,100.00
2022-11-27T21:24:50.919Z,100.00
2022-11-27T21:26:53.756Z,100.00
2022-11-27T21:28:56.791Z,100.00
2022-11-27T21:31:06.170Z,100.00
2022-11-27T21:33:08.842Z,100.00
2022-11-27T21:35:12.936Z,100.00
2022-11-27T21:37:15.733Z,100.00
2022-11-27T21:39:20.618Z,100.00
2022-11-27T21:41:23.472Z,100.00
2022-11-27T21:43:26.178Z,100.00
2022-11-27T21:45:29.097Z,100.00
2022-11-27T21:47:31.871Z,100.00
2022-11-27T21:49:34.636Z,100.00
2022-11-27T21:51:39.649Z,100.00
2022-11-27T21:53:43.328Z,100.00
2022-11-27T21:55:46.140Z,100.00
2022-11-27T21:57:48.872Z,100.00
2022-11-27T21:59:51.586Z,100.00
2022-11-27T22:01:56.997Z,100.00
2022-11-27T22:03:59.843Z,100.00
2022-11-27T22:06:06.735Z,100.00
2022-11-27T22:08:10.623Z,100.00
2022-11-27T22:10:13.584Z,100.00
2022-11-27T22:12:16.300Z,100.00
2022-11-27T22:14:18.946Z,100.00
2022-11-27T22:16:23.594Z,100.00
2022-11-27T22:18:26.415Z,100.00
2022-11-27T22:20:29.092Z,100.00
2022-11-27T22:22:31.811Z,100.00
2022-11-27T22:24:36.157Z,100.00
2022-11-27T22:26:38.988Z,100.00
2022-11-27T22:28:42.703Z,100.00
2022-11-27T22:30:45.458Z,100.00
2022-11-27T22:32:48.229Z,100.00
2022-11-27T22:34:51.701Z,100.00
2022-11-27T22:36:56.848Z,100.00
2022-11-27T22:39:01.483Z,100.00
2022-11-27T22:41:05.935Z,100.00
2022-11-27T22:43:08.658Z,100.00
2022-11-27T22:45:11.491Z,100.00
2022-11-27T22:47:14.453Z,100.00
2022-11-27T22:49:19.369Z,100.00
2022-11-27T22:51:22.374Z,100.00
2022-11-27T22:53:25.108Z,100.00
2022-11-27T22:55:28.151Z,100.00
2022-11-27T22:57:34.259Z,100.00
2022-11-27T22:59:37.055Z,100.00
2022-11-27T23:01:41.039Z,100.00
2022-11-27T23:03:44.248Z,100.00
2022-11-27T23:05:47.606Z,100.00
2022-11-27T23:07:50.470Z,100.00
2022-11-27T23:09:53.231Z,100.00
2022-11-27T23:11:56.961Z,100.00
2022-11-27T23:14:01.018Z,100.00
2022-11-27T23:16:04.825Z,100.00
2022-11-27T23:18:07.698Z,100.00
2022-11-27T23:20:11.689Z,100.00
2022-11-27T23:22:14.396Z,100.00
2022-11-27T23:24:17.158Z,100.00
2022-11-27T23:26:22.115Z,100.00
2022-11-27T23:28:24.931Z,100.00
2022-11-27T23:30:29.001Z,100.00
2022-11-27T23:32:31.700Z,100.00
2022-11-27T23:34:34.588Z,100.00
2022-11-27T23:36:38.576Z,100.00
2022-11-27T23:38:41.684Z,100.00
2022-11-27T23:40:44.386Z,100.00
2022-11-27T23:42:47.117Z,100.00
2022-11-27T23:44:49.829Z,100.00
2022-11-27T23:46:53.918Z,100.00
2022-11-27T23:48:58.521Z,100.00
2022-11-27T23:51:01.915Z,100.00
2022-11-27T23:53:04.630Z,100.00
2022-11-27T23:55:07.817Z,100.00
2022-11-27T23:57:10.517Z,100.00
2022-11-27T23:59:13.555Z,100.00
